createdAt,value
2018-01-08T00:01:01.095Z,101455.81
2018-01-08T00:02:03.554Z,101454.03
2018-01-08T00:03:06.019Z,101452.25
2018-01-08T00:04:08.504Z,101462.02
2018-01-08T00:05:10.981Z,101458.59
2018-01-08T00:06:13.439Z,101455.72
2018-01-08T00:07:15.903Z,101448.50
2018-01-08T00:08:18.413Z,101451.32
2018-01-08T00:09:20.873Z,101454.24
2018-01-08T00:10:23.347Z,101454.02
2018-01-08T00:11:25.821Z,101453.95
2018-01-08T00:12:28.292Z,101455.16
2018-01-08T00:13:30.775Z,101458.81
2018-01-08T00:14:33.251Z,101456.12
2018-01-08T00:15:35.712Z,101452.78
2018-01-08T00:16:38.182Z,101457.22
2018-01-08T00:17:40.656Z,101459.82
2018-01-08T00:18:43.140Z,101459.95
2018-01-08T00:19:45.589Z,101462.70
2018-01-08T00:20:48.047Z,101457.05
2018-01-08T00:21:50.524Z,101462.42
2018-01-08T00:22:53.001Z,101458.59
2018-01-08T00:23:55.587Z,101460.60
2018-01-08T00:24:58.060Z,101457.08
2018-01-08T00:26:00.532Z,101456.21
2018-01-08T00:27:02.996Z,101456.74
2018-01-08T00:28:05.471Z,101457.92
2018-01-08T00:29:07.944Z,101456.78
2018-01-08T00:30:10.416Z,101452.19
2018-01-08T00:31:12.891Z,101450.27
2018-01-08T00:32:15.346Z,101454.14
2018-01-08T00:33:17.816Z,101450.42
2018-01-08T00:34:20.278Z,101453.18
2018-01-08T00:35:22.762Z,101454.70
2018-01-08T00:36:25.236Z,101450.66
2018-01-08T00:37:27.708Z,101445.27
2018-01-08T00:38:30.162Z,101454.03
2018-01-08T00:39:32.626Z,101446.70
2018-01-08T00:40:35.092Z,101454.35
2018-01-08T00:41:37.564Z,101448.03
2018-01-08T00:42:40.038Z,101449.77
2018-01-08T00:43:42.490Z,101451.66
2018-01-08T00:44:44.946Z,101449.48
2018-01-08T00:45:47.439Z,101439.86
2018-01-08T00:46:49.901Z,101443.52
2018-01-08T00:47:52.362Z,101439.31
2018-01-08T00:48:54.832Z,101439.14
2018-01-08T00:49:57.324Z,101436.74
2018-01-08T00:50:59.790Z,101440.60
2018-01-08T00:52:02.258Z,101435.38
2018-01-08T00:53:04.724Z,101434.35
2018-01-08T00:54:07.203Z,101433.77
2018-01-08T00:55:09.662Z,101435.68
2018-01-08T00:56:12.137Z,101435.05
2018-01-08T00:57:14.594Z,101431.70
2018-01-08T00:58:17.050Z,101434.01
2018-01-08T00:59:19.506Z,101433.00
2018-01-08T01:00:21.966Z,101426.57
2018-01-08T01:01:24.444Z,101434.40
2018-01-08T01:02:26.931Z,101436.66
2018-01-08T01:03:29.429Z,101430.97
2018-01-08T01:04:31.894Z,101432.88
2018-01-08T01:05:34.358Z,101434.55
2018-01-08T01:06:36.832Z,101432.09
2018-01-08T01:07:39.287Z,101431.70
2018-01-08T01:08:41.759Z,101426.92
2018-01-08T01:09:44.231Z,101431.22
2018-01-08T01:10:46.705Z,101433.14
2018-01-08T01:11:49.180Z,101429.52
2018-01-08T01:12:51.637Z,101429.01
2018-01-08T01:13:54.138Z,101429.97
2018-01-08T01:14:56.631Z,101422.31
2018-01-08T01:15:59.100Z,101425.09
2018-01-08T01:17:01.564Z,101425.58
2018-01-08T01:18:04.041Z,101429.56
2018-01-08T01:19:06.513Z,101427.92
2018-01-08T01:20:08.992Z,101429.57
2018-01-08T01:21:11.451Z,101425.78
2018-01-08T01:22:13.916Z,101429.48
2018-01-08T01:23:16.385Z,101427.92
2018-01-08T01:24:18.853Z,101425.84
2018-01-08T01:25:21.320Z,101427.78
2018-01-08T01:26:23.782Z,101432.91
2018-01-08T01:27:26.256Z,101431.88
2018-01-08T01:28:28.732Z,101431.30
2018-01-08T01:29:31.190Z,101431.70
2018-01-08T01:30:33.660Z,101431.97
2018-01-08T01:31:36.142Z,101431.09
2018-01-08T01:32:38.606Z,101427.44
2018-01-08T01:33:41.076Z,101426.14
2018-01-08T01:34:43.548Z,101427.61
2018-01-08T01:35:46.006Z,101425.09
2018-01-08T01:36:48.479Z,101419.57
2018-01-08T01:37:50.962Z,101424.05
2018-01-08T01:38:53.436Z,101419.80
2018-01-08T01:39:55.895Z,101413.23
2018-01-08T01:40:58.358Z,101412.79
2018-01-08T01:42:00.810Z,101417.40
2018-01-08T01:43:03.294Z,101411.53
2018-01-08T01:44:05.758Z,101412.53
2018-01-08T01:45:08.240Z,101412.97
2018-01-08T01:46:10.716Z,101411.05
2018-01-08T01:47:13.178Z,101404.70
2018-01-08T01:48:15.668Z,101412.44
2018-01-08T01:49:22.080Z,101414.94
2018-01-08T01:50:24.556Z,101419.61
2018-01-08T01:51:27.018Z,101416.53
2018-01-08T01:52:29.492Z,101417.61
2018-01-08T01:53:31.982Z,101415.43
2018-01-08T01:54:34.458Z,101415.30
2018-01-08T01:55:36.914Z,101419.13
2018-01-08T01:56:39.392Z,101423.64
2018-01-08T01:57:41.861Z,101424.56
2018-01-08T01:58:44.404Z,101420.55
2018-01-08T01:59:46.876Z,101424.61
2018-01-08T02:00:49.356Z,101422.27
2018-01-08T02:01:51.824Z,101421.66
2018-01-08T02:02:54.282Z,101414.65
2018-01-08T02:03:56.780Z,101415.95
2018-01-08T02:04:59.247Z,101411.84
2018-01-08T02:06:01.706Z,101415.18
2018-01-08T02:07:04.200Z,101412.97
2018-01-08T02:08:07.586Z,101415.31
2018-01-08T02:09:10.087Z,101416.18
2018-01-08T02:10:12.556Z,101415.53
2018-01-08T02:11:15.014Z,101403.99
2018-01-08T02:12:17.486Z,101407.26
2018-01-08T02:13:19.946Z,101405.05
2018-01-08T02:14:22.440Z,101400.83
2018-01-08T02:15:24.899Z,101402.53
2018-01-08T02:16:27.384Z,101400.27
2018-01-08T02:17:29.842Z,101400.01
2018-01-08T02:18:32.322Z,101398.00
2018-01-08T02:19:34.821Z,101393.97
2018-01-08T02:20:37.279Z,101389.05
2018-01-08T02:21:39.748Z,101395.00
2018-01-08T02:22:42.210Z,101388.31
2018-01-08T02:23:44.694Z,101380.53
2018-01-08T02:24:47.188Z,101381.78
2018-01-08T02:25:49.656Z,101385.09
2018-01-08T02:26:52.119Z,101377.44
2018-01-08T02:27:54.602Z,101377.97
2018-01-08T02:28:57.066Z,101380.97
2018-01-08T02:29:59.542Z,101377.39
2018-01-08T02:31:02.003Z,101376.58
2018-01-08T02:32:04.462Z,101385.66
2018-01-08T02:33:06.926Z,101385.14
2018-01-08T02:34:09.400Z,101375.45
2018-01-08T02:35:11.893Z,101383.53
2018-01-08T02:36:14.354Z,101376.78
2018-01-08T02:37:16.827Z,101374.57
2018-01-08T02:38:19.293Z,101373.75
2018-01-08T02:39:21.752Z,101377.70
2018-01-08T02:40:24.236Z,101378.88
2018-01-08T02:41:26.738Z,101382.40
2018-01-08T02:42:29.225Z,101371.95
2018-01-08T02:43:31.700Z,101365.83
2018-01-08T02:44:34.162Z,101369.70
2018-01-08T02:45:36.662Z,101369.56
2018-01-08T02:46:39.136Z,101361.79
2018-01-08T02:47:41.608Z,101370.80
2018-01-08T02:48:44.072Z,101363.13
2018-01-08T02:49:46.544Z,101366.96
2018-01-08T02:50:49.046Z,101359.87
2018-01-08T02:51:51.511Z,101360.73
2018-01-08T02:52:53.982Z,101358.01
2018-01-08T02:53:56.443Z,101365.31
2018-01-08T02:54:58.921Z,101371.19
2018-01-08T02:56:01.419Z,101373.97
2018-01-08T02:57:03.958Z,101362.95
2018-01-08T02:58:06.418Z,101365.53
2018-01-08T02:59:08.874Z,101367.87
2018-01-08T03:00:11.369Z,101370.17
2018-01-08T03:01:13.860Z,101367.77
2018-01-08T03:02:16.327Z,101362.73
2018-01-08T03:03:18.805Z,101366.43
2018-01-08T03:04:21.289Z,101368.52
2018-01-08T03:05:23.768Z,101370.34
2018-01-08T03:06:26.250Z,101365.42
2018-01-08T03:07:28.725Z,101363.73
2018-01-08T03:08:31.192Z,101364.03
2018-01-08T03:09:33.645Z,101370.52
2018-01-08T03:10:36.116Z,101365.51
2018-01-08T03:11:38.598Z,101367.30
2018-01-08T03:12:41.072Z,101362.78
2018-01-08T03:13:43.544Z,101374.82
2018-01-08T03:14:45.998Z,101369.21
2018-01-08T03:15:48.473Z,101370.30
2018-01-08T03:16:50.942Z,101368.26
2018-01-08T03:17:53.400Z,101375.39
2018-01-08T03:18:55.872Z,101367.46
2018-01-08T03:19:58.354Z,101366.33
2018-01-08T03:21:00.806Z,101364.69
2018-01-08T03:22:03.285Z,101366.69
2018-01-08T03:23:05.749Z,101376.08
2018-01-08T03:24:08.212Z,101370.47
2018-01-08T03:25:10.688Z,101373.46
2018-01-08T03:26:13.150Z,101369.05
2018-01-08T03:27:15.656Z,101379.69
2018-01-08T03:28:18.118Z,101379.90
2018-01-08T03:29:20.596Z,101375.86
2018-01-08T03:30:23.069Z,101375.31
2018-01-08T03:31:25.519Z,101381.91
2018-01-08T03:32:28.001Z,101379.45
2018-01-08T03:33:30.455Z,101387.20
2018-01-08T03:34:32.914Z,101382.55
2018-01-08T03:35:35.416Z,101380.95
2018-01-08T03:36:37.874Z,101383.16
2018-01-08T03:37:40.358Z,101379.55
2018-01-08T03:38:42.820Z,101377.86
2018-01-08T03:39:45.272Z,101378.20
2018-01-08T03:40:47.736Z,101385.72
2018-01-08T03:41:50.193Z,101386.20
2018-01-08T03:42:52.670Z,101384.73
2018-01-08T03:43:55.155Z,101380.64
2018-01-08T03:44:57.614Z,101380.84
2018-01-08T03:46:00.080Z,101390.25
2018-01-08T03:47:02.552Z,101387.59
2018-01-08T03:48:05.060Z,101391.20
2018-01-08T03:49:07.545Z,101385.41
2018-01-08T03:50:10.010Z,101388.67
2018-01-08T03:51:12.577Z,101389.49
2018-01-08T03:52:15.050Z,101391.22
2018-01-08T03:53:17.540Z,101383.16
2018-01-08T03:54:19.994Z,101380.95
2018-01-08T03:55:22.458Z,101383.42
2018-01-08T03:56:24.920Z,101380.89
2018-01-08T03:57:27.375Z,101385.86
2018-01-08T03:58:29.851Z,101381.02
2018-01-08T03:59:32.298Z,101378.76
2018-01-08T04:00:34.768Z,101385.71
2018-01-08T04:01:37.218Z,101381.18
2018-01-08T04:02:39.670Z,101379.33
2018-01-08T04:03:42.158Z,101379.63
2018-01-08T04:04:44.629Z,101386.90
2018-01-08T04:05:47.112Z,101382.11
2018-01-08T04:06:49.584Z,101381.23
2018-01-08T04:07:52.057Z,101386.09
2018-01-08T04:08:54.534Z,101389.36
2018-01-08T04:09:57.004Z,101385.84
2018-01-08T04:10:59.464Z,101383.58
2018-01-08T04:12:01.922Z,101384.77
2018-01-08T04:13:04.381Z,101386.90
2018-01-08T04:14:06.864Z,101391.99
2018-01-08T04:15:09.336Z,101389.06
2018-01-08T04:16:11.797Z,101385.14
2018-01-08T04:17:14.262Z,101381.05
2018-01-08T04:18:16.761Z,101388.41
2018-01-08T04:19:19.262Z,101383.44
2018-01-08T04:20:21.728Z,101384.06
2018-01-08T04:21:24.187Z,101380.87
2018-01-08T04:22:26.650Z,101379.39
2018-01-08T04:23:29.113Z,101384.89
2018-01-08T04:24:31.617Z,101386.58
2018-01-08T04:25:34.084Z,101383.03
2018-01-08T04:26:36.580Z,101375.75
2018-01-08T04:27:39.057Z,101380.02
2018-01-08T04:28:41.548Z,101380.36
2018-01-08T04:29:44.022Z,101373.22
2018-01-08T04:30:46.496Z,101378.50
2018-01-08T04:31:48.966Z,101381.20
2018-01-08T04:32:51.432Z,101381.09
2018-01-08T04:33:53.897Z,101382.11
2018-01-08T04:34:56.362Z,101377.58
2018-01-08T04:35:58.836Z,101395.38
2018-01-08T04:37:01.302Z,101397.03
2018-01-08T04:38:03.771Z,101390.50
2018-01-08T04:39:06.248Z,101390.58
2018-01-08T04:40:08.724Z,101388.29
2018-01-08T04:41:11.228Z,101387.16
2018-01-08T04:42:13.711Z,101386.84
2018-01-08T04:43:16.228Z,101388.06
2018-01-08T04:44:18.707Z,101389.94
2018-01-08T04:45:21.194Z,101383.06
2018-01-08T04:46:23.673Z,101386.48
2018-01-08T04:47:27.052Z,101379.22
2018-01-08T04:48:29.520Z,101383.39
2018-01-08T04:49:31.978Z,101385.27
2018-01-08T04:50:34.483Z,101389.52
2018-01-08T04:51:36.946Z,101384.70
2018-01-08T04:52:39.412Z,101393.73
2018-01-08T04:53:41.888Z,101390.32
2018-01-08T04:54:44.370Z,101390.14
2018-01-08T04:55:46.860Z,101385.66
2018-01-08T04:56:49.331Z,101386.66
2018-01-08T04:57:51.782Z,101386.36
2018-01-08T04:58:54.235Z,101384.53
2018-01-08T04:59:56.698Z,101390.63
2018-01-08T05:00:59.180Z,101388.63
2018-01-08T05:02:01.630Z,101386.41
2018-01-08T05:03:04.108Z,101382.19
2018-01-08T05:04:06.570Z,101382.41
2018-01-08T05:05:09.048Z,101375.54
2018-01-08T05:06:11.525Z,101375.19
2018-01-08T05:07:13.990Z,101382.23
2018-01-08T05:08:16.466Z,101375.28
2018-01-08T05:09:18.941Z,101382.76
2018-01-08T05:10:21.429Z,101391.72
2018-01-08T05:11:23.926Z,101382.98
2018-01-08T05:12:26.474Z,101385.02
2018-01-08T05:13:28.937Z,101386.28
2018-01-08T05:14:31.404Z,101389.63
2018-01-08T05:15:33.873Z,101389.70
2018-01-08T05:16:36.366Z,101391.27
2018-01-08T05:17:38.836Z,101392.02
2018-01-08T05:18:41.300Z,101379.14
2018-01-08T05:19:43.772Z,101389.49
2018-01-08T05:20:46.238Z,101386.99
2018-01-08T05:21:48.728Z,101391.96
2018-01-08T05:22:51.193Z,101390.19
2018-01-08T05:23:53.646Z,101394.94
2018-01-08T05:24:56.118Z,101394.58
2018-01-08T05:25:58.581Z,101397.90
2018-01-08T05:27:01.049Z,101399.97
2018-01-08T05:28:03.516Z,101398.73
2018-01-08T05:29:06.009Z,101392.35
2018-01-08T05:30:08.470Z,101395.21
2018-01-08T05:31:10.931Z,101391.71
2018-01-08T05:32:13.432Z,101391.20
2018-01-08T05:33:15.908Z,101392.17
2018-01-08T05:34:18.356Z,101393.73
2018-01-08T05:35:20.830Z,101392.28
2018-01-08T05:36:23.278Z,101387.48
2018-01-08T05:37:25.759Z,101392.59
2018-01-08T05:38:28.224Z,101391.53
2018-01-08T05:39:30.691Z,101384.66
2018-01-08T05:40:33.180Z,101389.20
2018-01-08T05:41:35.673Z,101386.34
2018-01-08T05:42:38.188Z,101386.22
2018-01-08T05:43:40.650Z,101391.52
2018-01-08T05:44:43.114Z,101397.52
2018-01-08T05:45:45.587Z,101393.88
2018-01-08T05:46:48.046Z,101384.91
2018-01-08T05:47:50.539Z,101388.81
2018-01-08T05:48:52.998Z,101394.43
2018-01-08T05:49:55.477Z,101383.14
2018-01-08T05:50:57.993Z,101396.86
2018-01-08T05:52:00.469Z,101388.69
2018-01-08T05:53:02.964Z,101393.50
2018-01-08T05:54:05.435Z,101393.67
2018-01-08T05:55:07.904Z,101392.69
2018-01-08T05:56:10.362Z,101390.58
2018-01-08T05:57:12.831Z,101393.54
2018-01-08T05:58:15.332Z,101393.66
2018-01-08T05:59:17.809Z,101388.95
2018-01-08T06:00:20.284Z,101394.48
2018-01-08T06:01:22.742Z,101397.98
2018-01-08T06:02:25.217Z,101397.39
2018-01-08T06:03:27.706Z,101388.06
2018-01-08T06:04:30.227Z,101393.53
2018-01-08T06:05:32.705Z,101393.16
2018-01-08T06:06:35.179Z,101396.27
2018-01-08T06:07:37.662Z,101397.27
2018-01-08T06:08:40.402Z,101388.25
2018-01-08T06:09:42.885Z,101387.56
2018-01-08T06:10:45.348Z,101385.09
2018-01-08T06:11:47.825Z,101385.66
2018-01-08T06:12:50.301Z,101392.99
2018-01-08T06:13:52.787Z,101390.65
2018-01-08T06:14:55.259Z,101387.86
2018-01-08T06:15:57.718Z,101390.75
2018-01-08T06:17:00.229Z,101391.48
2018-01-08T06:18:02.701Z,101384.66
2018-01-08T06:19:05.217Z,101387.99
2018-01-08T06:20:07.683Z,101385.47
2018-01-08T06:21:10.151Z,101386.23
2018-01-08T06:22:12.666Z,101387.59
2018-01-08T06:23:15.136Z,101389.08
2018-01-08T06:24:17.644Z,101380.73
2018-01-08T06:25:20.120Z,101383.20
2018-01-08T06:26:22.594Z,101381.94
2018-01-08T06:27:25.079Z,101368.12
2018-01-08T06:28:27.576Z,101377.72
2018-01-08T06:29:30.059Z,101371.90
2018-01-08T06:30:32.536Z,101379.11
2018-01-08T06:31:35.013Z,101382.77
2018-01-08T06:32:37.509Z,101387.31
2018-01-08T06:33:39.983Z,101379.84
2018-01-08T06:34:42.508Z,101385.92
2018-01-08T06:35:44.979Z,101385.27
2018-01-08T06:36:47.461Z,101377.62
2018-01-08T06:37:49.936Z,101390.63
2018-01-08T06:38:52.417Z,101382.77
2018-01-08T06:39:54.913Z,101377.27
2018-01-08T06:40:57.370Z,101374.55
2018-01-08T06:41:59.841Z,101384.27
2018-01-08T06:43:02.303Z,101368.71
2018-01-08T06:44:04.758Z,101375.45
2018-01-08T06:45:07.243Z,101375.63
2018-01-08T06:46:09.716Z,101372.84
2018-01-08T06:47:12.306Z,101376.83
2018-01-08T06:48:14.788Z,101379.61
2018-01-08T06:49:17.251Z,101379.02
2018-01-08T06:50:19.756Z,101379.28
2018-01-08T06:51:22.264Z,101374.89
2018-01-08T06:52:24.735Z,101369.86
2018-01-08T06:53:27.208Z,101372.19
2018-01-08T06:54:29.740Z,101374.23
2018-01-08T06:55:32.244Z,101374.75
2018-01-08T06:56:34.701Z,101373.82
2018-01-08T06:57:37.173Z,101382.53
2018-01-08T06:58:39.629Z,101382.92
2018-01-08T06:59:42.121Z,101367.05
2018-01-08T07:00:44.598Z,101382.66
2018-01-08T07:01:47.066Z,101385.41
2018-01-08T07:02:49.541Z,101375.52
2018-01-08T07:03:52.014Z,101385.69
2018-01-08T07:04:54.488Z,101388.26
2018-01-08T07:05:56.983Z,101379.47
2018-01-08T07:06:59.461Z,101381.17
2018-01-08T07:08:01.937Z,101378.48
2018-01-08T07:09:04.417Z,101381.27
2018-01-08T07:10:06.870Z,101376.68
2018-01-08T07:11:09.360Z,101383.52
2018-01-08T07:12:11.842Z,101391.34
2018-01-08T07:13:14.323Z,101395.50
2018-01-08T07:14:16.796Z,101398.69
2018-01-08T07:15:19.278Z,101398.73
2018-01-08T07:16:21.854Z,101395.45
2018-01-08T07:17:24.364Z,101400.14
2018-01-08T07:18:26.852Z,101395.70
2018-01-08T07:19:29.334Z,101397.48
2018-01-08T07:20:31.795Z,101395.91
2018-01-08T07:21:34.304Z,101392.06
2018-01-08T07:22:36.770Z,101400.48
2018-01-08T07:23:39.328Z,101392.41
2018-01-08T07:24:41.817Z,101397.48
2018-01-08T07:25:44.391Z,101394.88
2018-01-08T07:26:46.896Z,101393.39
2018-01-08T07:27:49.398Z,101390.02
2018-01-08T07:28:51.879Z,101393.69
2018-01-08T07:29:54.353Z,101388.33
2018-01-08T07:30:56.824Z,101399.75
2018-01-08T07:31:59.319Z,101393.24
2018-01-08T07:33:01.813Z,101400.14
2018-01-08T07:34:04.297Z,101392.73
2018-01-08T07:35:06.754Z,101388.75
2018-01-08T07:36:09.275Z,101393.93
2018-01-08T07:37:11.758Z,101388.27
2018-01-08T07:38:14.242Z,101386.88
2018-01-08T07:39:16.774Z,101393.94
2018-01-08T07:40:19.242Z,101389.70
2018-01-08T07:41:21.719Z,101391.28
2018-01-08T07:42:24.240Z,101391.20
2018-01-08T07:43:26.797Z,101382.30
2018-01-08T07:44:29.258Z,101381.43
2018-01-08T07:45:31.716Z,101386.05
2018-01-08T07:46:34.174Z,101391.32
2018-01-08T07:47:36.673Z,101390.78
2018-01-08T07:48:39.134Z,101384.84
2018-01-08T07:49:41.594Z,101381.87
2018-01-08T07:50:44.058Z,101391.34
2018-01-08T07:51:46.527Z,101386.23
2018-01-08T07:52:49.006Z,101385.41
2018-01-08T07:53:51.497Z,101380.31
2018-01-08T07:54:53.972Z,101383.52
2018-01-08T07:55:56.434Z,101388.57
2018-01-08T07:56:58.905Z,101385.09
2018-01-08T07:58:01.409Z,101387.34
2018-01-08T07:59:03.897Z,101395.27
2018-01-08T08:00:06.373Z,101391.91
2018-01-08T08:01:08.857Z,101394.11
2018-01-08T08:02:11.315Z,101395.66
2018-01-08T08:03:13.802Z,101386.51
2018-01-08T08:04:16.262Z,101392.80
2018-01-08T08:05:18.740Z,101384.53
2018-01-08T08:06:21.208Z,101380.07
2018-01-08T08:07:23.876Z,101387.25
2018-01-08T08:08:26.375Z,101380.80
2018-01-08T08:09:28.860Z,101376.39
2018-01-08T08:10:31.316Z,101375.77
2018-01-08T08:11:33.773Z,101379.98
2018-01-08T08:12:36.265Z,101381.75
2018-01-08T08:13:38.750Z,101378.48
2018-01-08T08:14:41.214Z,101377.86
2018-01-08T08:15:43.675Z,101381.31
2018-01-08T08:16:46.149Z,101381.94
2018-01-08T08:17:48.610Z,101387.77
2018-01-08T08:18:51.109Z,101385.61
2018-01-08T08:19:53.583Z,101385.53
2018-01-08T08:20:56.047Z,101384.99
2018-01-08T08:21:58.510Z,101388.71
2018-01-08T08:23:00.996Z,101392.16
2018-01-08T08:24:03.479Z,101392.23
2018-01-08T08:25:05.972Z,101399.06
2018-01-08T08:26:08.470Z,101390.34
2018-01-08T08:27:11.002Z,101394.20
2018-01-08T08:28:13.512Z,101392.42
2018-01-08T08:29:16.051Z,101393.14
2018-01-08T08:30:18.657Z,101394.20
2018-01-08T08:31:21.138Z,101392.67
2018-01-08T08:32:23.615Z,101392.82
2018-01-08T08:33:26.086Z,101386.42
2018-01-08T08:34:28.614Z,101391.85
2018-01-08T08:35:31.058Z,101393.36
2018-01-08T08:36:33.545Z,101384.22
2018-01-08T08:37:36.121Z,101385.48
2018-01-08T08:38:38.583Z,101382.02
2018-01-08T08:39:41.155Z,101381.75
2018-01-08T08:40:43.640Z,101381.56
2018-01-08T08:41:46.148Z,101377.98
2018-01-08T08:42:48.606Z,101379.53
2018-01-08T08:43:51.081Z,101379.80
2018-01-08T08:44:53.557Z,101378.48
2018-01-08T08:45:56.034Z,101384.40
2018-01-08T08:46:58.495Z,101379.20
2018-01-08T08:48:00.973Z,101381.91
2018-01-08T08:49:03.438Z,101378.25
2018-01-08T08:50:05.933Z,101380.02
2018-01-08T08:51:08.405Z,101374.66
2018-01-08T08:52:10.880Z,101374.47
2018-01-08T08:53:13.403Z,101382.05
2018-01-08T08:54:15.896Z,101371.38
2018-01-08T08:55:18.363Z,101370.27
2018-01-08T08:56:20.826Z,101376.91
2018-01-08T08:57:23.301Z,101381.38
2018-01-08T08:58:25.834Z,101373.28
2018-01-08T08:59:28.320Z,101377.71
2018-01-08T09:00:31.346Z,101376.66
2018-01-08T09:01:33.867Z,101365.53
2018-01-08T09:02:36.345Z,101378.39
2018-01-08T09:03:39.200Z,101374.48
2018-01-08T09:04:42.271Z,101373.98
2018-01-08T09:05:44.874Z,101386.71
2018-01-08T09:06:47.356Z,101376.63
2018-01-08T09:07:50.047Z,101382.31
2018-01-08T09:08:52.907Z,101377.06
2018-01-08T09:09:55.690Z,101378.39
2018-01-08T09:10:58.296Z,101379.91
2018-01-08T09:12:00.766Z,101381.56
2018-01-08T09:13:03.306Z,101380.67
2018-01-08T09:14:05.785Z,101376.30
2018-01-08T09:15:08.489Z,101374.67
2018-01-08T09:16:11.251Z,101372.41
2018-01-08T09:17:13.750Z,101371.89
2018-01-08T09:18:16.210Z,101376.53
2018-01-08T09:19:18.688Z,101373.50
2018-01-08T09:20:21.150Z,101374.00
2018-01-08T09:21:23.633Z,101370.45
2018-01-08T09:22:26.096Z,101374.44
2018-01-08T09:23:28.572Z,101372.03
2018-01-08T09:24:31.059Z,101372.34
2018-01-08T09:25:33.538Z,101369.70
2018-01-08T09:26:36.042Z,101376.67
2018-01-08T09:27:38.528Z,101370.06
2018-01-08T09:28:41.020Z,101374.58
2018-01-08T09:29:43.501Z,101377.25
2018-01-08T09:30:45.978Z,101379.08
2018-01-08T09:31:48.527Z,101374.16
2018-01-08T09:32:50.995Z,101376.81
2018-01-08T09:33:53.457Z,101373.14
2018-01-08T09:34:55.914Z,101373.53
2018-01-08T09:35:58.373Z,101376.72
2018-01-08T09:37:00.853Z,101378.66
2018-01-08T09:38:03.516Z,101375.05
2018-01-08T09:39:05.978Z,101382.74
2018-01-08T09:40:08.619Z,101381.78
2018-01-08T09:41:11.089Z,101379.66
2018-01-08T09:42:13.622Z,101379.61
2018-01-08T09:43:16.092Z,101380.70
2018-01-08T09:44:18.571Z,101378.83
2018-01-08T09:45:21.043Z,101372.64
2018-01-08T09:46:23.517Z,101370.39
2018-01-08T09:47:26.018Z,101374.52
2018-01-08T09:48:28.496Z,101371.34
2018-01-08T09:49:30.969Z,101369.18
2018-01-08T09:50:33.452Z,101371.66
2018-01-08T09:51:36.042Z,101366.82
2018-01-08T09:52:38.541Z,101365.13
2018-01-08T09:53:41.074Z,101375.28
2018-01-08T09:54:43.594Z,101362.05
2018-01-08T09:55:46.122Z,101366.95
2018-01-08T09:56:48.583Z,101364.58
2018-01-08T09:57:51.062Z,101372.01
2018-01-08T09:58:53.544Z,101365.34
2018-01-08T09:59:56.016Z,101372.27
2018-01-08T10:00:58.474Z,101363.86
2018-01-08T10:02:00.944Z,101366.09
2018-01-08T10:03:15.246Z,101363.76
2018-01-08T10:04:29.695Z,101362.55
2018-01-08T10:05:43.890Z,101363.02
2018-01-08T10:06:58.134Z,101371.36
2018-01-08T10:08:12.507Z,101364.36
2018-01-08T10:09:26.748Z,101356.17
2018-01-08T10:10:41.045Z,101368.02
2018-01-08T10:11:55.250Z,101361.19
2018-01-08T10:13:09.516Z,101368.41
2018-01-08T10:14:23.810Z,101362.56
2018-01-08T10:15:38.234Z,101362.27
2018-01-08T10:16:52.540Z,101358.86
2018-01-08T10:18:06.864Z,101364.42
2018-01-08T10:19:21.066Z,101359.40
2018-01-08T10:20:23.532Z,101356.57
2018-01-08T10:21:26.000Z,101359.52
2018-01-08T10:22:28.480Z,101356.13
2018-01-08T10:23:30.946Z,101349.42
2018-01-08T10:24:33.413Z,101346.90
2018-01-08T10:25:35.902Z,101347.75
2018-01-08T10:26:38.358Z,101347.65
2018-01-08T10:27:40.869Z,101344.92
2018-01-08T10:28:43.336Z,101347.09
2018-01-08T10:29:45.824Z,101344.81
2018-01-08T10:30:48.296Z,101339.00
2018-01-08T10:31:50.750Z,101339.61
2018-01-08T10:32:53.222Z,101335.34
2018-01-08T10:33:55.692Z,101326.69
2018-01-08T10:34:58.168Z,101333.39
2018-01-08T10:36:00.627Z,101322.79
2018-01-08T10:37:03.078Z,101322.14
2018-01-08T10:38:05.552Z,101327.23
2018-01-08T10:39:08.028Z,101325.31
2018-01-08T10:40:10.539Z,101315.50
2018-01-08T10:41:12.448Z,101316.19
2018-01-08T10:42:20.611Z,101307.56
2018-01-08T10:43:28.716Z,101310.19
2018-01-08T10:44:36.648Z,101307.97
2018-01-08T10:45:44.678Z,101307.54
2018-01-08T10:46:52.802Z,101309.59
2018-01-08T10:48:00.884Z,101311.30
2018-01-08T10:49:08.984Z,101310.23
2018-01-08T10:50:17.076Z,101308.34
2018-01-08T10:51:25.049Z,101307.44
2018-01-08T10:52:27.159Z,101298.66
2018-01-08T10:53:30.159Z,101304.59
2018-01-08T10:54:33.542Z,101305.89
2018-01-08T10:55:36.015Z,101302.97
2018-01-08T10:56:38.489Z,101308.02
2018-01-08T10:57:40.956Z,101302.77
2018-01-08T10:58:43.456Z,101293.45
2018-01-08T10:59:45.914Z,101304.27
2018-01-08T11:00:54.035Z,101298.81
2018-01-08T11:02:02.098Z,101294.23
2018-01-08T11:03:10.074Z,101298.39
2018-01-08T11:04:12.549Z,101294.13
2018-01-08T11:05:15.121Z,101293.49
2018-01-08T11:06:17.554Z,101291.16
2018-01-08T11:07:20.029Z,101290.33
2018-01-08T11:08:22.502Z,101291.44
2018-01-08T11:09:24.963Z,101280.09
2018-01-08T11:10:27.440Z,101283.37
2018-01-08T11:11:29.936Z,101281.40
2018-01-08T11:12:32.532Z,101282.55
2018-01-08T11:13:35.012Z,101284.20
2018-01-08T11:14:37.513Z,101288.31
2018-01-08T11:15:39.987Z,101285.35
2018-01-08T11:16:42.482Z,101276.31
2018-01-08T11:17:44.942Z,101278.04
2018-01-08T11:18:47.412Z,101275.55
2018-01-08T11:19:49.884Z,101274.23
2018-01-08T11:20:52.370Z,101270.92
2018-01-08T11:21:54.847Z,101273.50
2018-01-08T11:22:57.322Z,101275.61
2018-01-08T11:23:59.778Z,101271.93
2018-01-08T11:25:02.238Z,101269.06
2018-01-08T11:26:04.709Z,101277.06
2018-01-08T11:27:07.192Z,101269.59
2018-01-08T11:28:09.646Z,101272.70
2018-01-08T11:29:12.115Z,101266.16
2018-01-08T11:30:14.613Z,101264.64
2018-01-08T11:31:17.083Z,101262.70
2018-01-08T11:32:19.561Z,101262.27
2018-01-08T11:33:22.050Z,101264.58
2018-01-08T11:34:24.514Z,101255.09
2018-01-08T11:35:26.997Z,101251.14
2018-01-08T11:36:29.495Z,101248.59
2018-01-08T11:37:31.950Z,101249.78
2018-01-08T11:38:34.410Z,101246.48
2018-01-08T11:39:36.880Z,101251.14
2018-01-08T11:40:39.339Z,101248.34
2018-01-08T11:41:41.803Z,101241.84
2018-01-08T11:42:44.271Z,101241.80
2018-01-08T11:43:46.744Z,101240.76
2018-01-08T11:44:49.225Z,101241.84
2018-01-08T11:45:51.708Z,101234.97
2018-01-08T11:46:54.181Z,101237.50
2018-01-08T11:47:56.663Z,101239.60
2018-01-08T11:48:59.117Z,101233.92
2018-01-08T11:50:01.598Z,101231.92
2018-01-08T11:51:04.058Z,101237.03
2018-01-08T11:52:06.513Z,101230.88
2018-01-08T11:53:08.970Z,101232.44
2018-01-08T11:54:11.439Z,101230.14
2018-01-08T11:55:13.911Z,101227.47
2018-01-08T11:56:16.398Z,101230.03
2018-01-08T11:57:18.862Z,101228.09